createdAt,value
2019-03-10T00:01:41.647Z,106.80
2019-03-10T00:04:13.684Z,116.80
2019-03-10T00:06:45.488Z,113.00
2019-03-10T00:09:17.418Z,115.40
2019-03-10T00:11:48.986Z,116.80
2019-03-10T00:14:20.843Z,117.00
2019-03-10T00:16:52.414Z,110.20
2019-03-10T00:19:24.069Z,102.80
2019-03-10T00:21:56.303Z,96.60
2019-03-10T00:24:27.905Z,97.60
2019-03-10T00:26:59.401Z,100.60
2019-03-10T00:29:30.972Z,102.40
2019-03-10T00:32:02.640Z,117.20
2019-03-10T00:34:34.117Z,104.60
2019-03-10T00:37:05.868Z,98.80
2019-03-10T00:40:31.875Z,109.00
2019-03-10T00:43:36.440Z,99.40
2019-03-10T00:46:45.766Z,106.80
2019-03-10T00:50:01.402Z,107.80
2019-03-10T00:52:37.617Z,111.20
2019-03-10T00:55:09.462Z,104.20
2019-03-10T00:57:40.993Z,110.00
2019-03-10T01:00:17.900Z,95.20
2019-03-10T01:02:49.511Z,106.20
2019-03-10T01:05:21.543Z,105.40
2019-03-10T01:07:53.080Z,103.00
2019-03-10T01:10:25.070Z,104.80
2019-03-10T01:12:56.782Z,107.20
2019-03-10T01:15:28.854Z,113.40
2019-03-10T01:18:00.475Z,114.20
2019-03-10T01:20:33.470Z,116.00
2019-03-10T01:23:05.757Z,112.60
2019-03-10T01:25:37.417Z,118.20
2019-03-10T01:28:09.185Z,85.80
2019-03-10T01:30:51.878Z,96.00
2019-03-10T01:33:51.601Z,89.20
2019-03-10T01:36:20.905Z,99.80
2019-03-10T01:38:52.499Z,101.80
2019-03-10T01:41:24.015Z,102.40
2019-03-10T01:43:55.617Z,99.20
2019-03-10T01:46:27.355Z,120.80
2019-03-10T01:48:58.675Z,120.20
2019-03-10T01:51:30.461Z,118.60
2019-03-10T01:54:02.031Z,129.80
2019-03-10T01:56:33.996Z,114.20
2019-03-10T01:59:05.702Z,116.20
2019-03-10T02:01:37.464Z,118.80
2019-03-10T02:04:08.962Z,112.40
2019-03-10T02:06:40.553Z,114.40
2019-03-10T02:09:12.494Z,119.80
2019-03-10T02:11:44.768Z,110.20
2019-03-10T02:14:16.334Z,120.20
2019-03-10T02:16:48.016Z,115.20
2019-03-10T02:19:19.583Z,106.80
2019-03-10T02:21:52.702Z,110.00
2019-03-10T02:24:24.395Z,106.20
2019-03-10T02:26:55.989Z,119.20
2019-03-10T02:29:27.431Z,120.20
2019-03-10T02:31:58.973Z,119.60
2019-03-10T02:34:30.375Z,113.20
2019-03-10T02:37:01.956Z,109.00
2019-03-10T02:39:33.634Z,123.00
2019-03-10T02:42:05.405Z,107.80
2019-03-10T02:44:36.883Z,115.80
2019-03-10T02:47:08.301Z,108.80
2019-03-10T02:49:40.013Z,112.80
2019-03-10T02:52:11.627Z,115.00
2019-03-10T02:54:43.386Z,104.40
2019-03-10T02:57:14.956Z,114.20
2019-03-10T02:59:46.462Z,110.60
2019-03-10T03:02:18.228Z,122.40
2019-03-10T03:04:50.363Z,104.00
2019-03-10T03:07:22.170Z,116.80
2019-03-10T03:09:54.246Z,117.20
2019-03-10T03:12:26.092Z,105.80
2019-03-10T03:14:57.985Z,119.20
2019-03-10T03:17:29.618Z,113.80
2019-03-10T03:20:01.223Z,112.80
2019-03-10T03:22:32.793Z,117.80
2019-03-10T03:25:05.002Z,118.40
2019-03-10T03:27:36.560Z,117.40
2019-03-10T03:30:08.750Z,118.60
2019-03-10T03:32:40.573Z,127.40
2019-03-10T03:35:45.012Z,113.80
2019-03-10T03:38:18.304Z,108.80
2019-03-10T03:40:53.567Z,125.20
2019-03-10T03:43:25.209Z,108.60
2019-03-10T03:45:57.113Z,91.60
2019-03-10T03:48:28.833Z,106.60
2019-03-10T03:51:00.567Z,111.80
2019-03-10T03:53:32.566Z,117.80
2019-03-10T03:56:04.150Z,106.80
2019-03-10T03:58:35.949Z,113.00
2019-03-10T04:01:14.239Z,104.20
2019-03-10T04:03:45.964Z,102.20
2019-03-10T04:06:17.965Z,102.60
2019-03-10T04:08:49.654Z,107.40
2019-03-10T04:11:21.447Z,91.40
2019-03-10T04:13:53.478Z,87.80
2019-03-10T04:16:26.051Z,97.80
2019-03-10T04:18:57.717Z,98.00
2019-03-10T04:21:29.511Z,93.00
2019-03-10T04:24:01.464Z,94.20
2019-03-10T04:26:34.168Z,78.40
2019-03-10T04:29:06.258Z,100.40
2019-03-10T04:31:38.496Z,103.80
2019-03-10T04:34:10.313Z,103.40
2019-03-10T04:36:42.207Z,91.40
2019-03-10T04:39:14.009Z,84.40
2019-03-10T04:41:45.470Z,90.40
2019-03-10T04:44:17.405Z,90.80
2019-03-10T04:46:49.235Z,86.80
2019-03-10T04:49:20.865Z,81.80
2019-03-10T04:51:52.590Z,83.40
2019-03-10T04:54:51.223Z,84.00
2019-03-10T04:57:23.113Z,81.80
2019-03-10T04:59:55.146Z,74.40
2019-03-10T05:02:27.428Z,76.00
2019-03-10T05:04:59.473Z,66.00
2019-03-10T05:07:31.111Z,71.20
2019-03-10T05:10:02.778Z,64.60
2019-03-10T05:12:34.603Z,62.40
2019-03-10T05:15:07.334Z,60.20
2019-03-10T05:17:38.828Z,54.40
2019-03-10T05:20:10.635Z,57.20
2019-03-10T05:22:42.136Z,52.20
2019-03-10T05:25:14.065Z,53.20
2019-03-10T05:27:45.693Z,57.60
2019-03-10T05:30:17.397Z,57.40
2019-03-10T05:32:49.080Z,50.80
2019-03-10T05:35:20.779Z,54.80
2019-03-10T05:37:52.466Z,54.60
2019-03-10T05:40:25.129Z,56.60
2019-03-10T05:42:56.658Z,55.20
2019-03-10T05:45:28.415Z,51.60
2019-03-10T05:48:00.154Z,46.60
2019-03-10T05:50:31.554Z,54.40
2019-03-10T05:53:03.216Z,53.60
2019-03-10T05:55:34.719Z,46.00
2019-03-10T05:58:06.585Z,47.80
2019-03-10T06:00:42.800Z,49.00
2019-03-10T06:03:12.264Z,48.80
2019-03-10T06:05:43.870Z,48.60
2019-03-10T06:08:15.679Z,42.00
2019-03-10T06:10:47.397Z,45.20
2019-03-10T06:13:18.782Z,48.60
2019-03-10T06:15:50.306Z,47.40
2019-03-10T06:18:21.863Z,42.80
2019-03-10T06:20:53.429Z,40.60
2019-03-10T06:23:25.341Z,43.40
2019-03-10T06:25:56.931Z,43.00
2019-03-10T06:28:29.773Z,45.60
2019-03-10T06:31:01.391Z,41.80
2019-03-10T06:33:33.003Z,45.60
2019-03-10T06:36:04.857Z,43.40
2019-03-10T06:38:36.397Z,49.20
2019-03-10T06:41:07.838Z,46.40
2019-03-10T06:43:39.084Z,39.40
2019-03-10T06:46:10.637Z,41.80
2019-03-10T06:48:42.273Z,47.00
2019-03-10T06:51:13.511Z,40.00
2019-03-10T06:53:45.254Z,44.80
2019-03-10T06:56:17.178Z,44.40
2019-03-10T06:58:49.346Z,47.00
2019-03-10T07:01:20.977Z,40.20
2019-03-10T07:03:53.148Z,36.00
2019-03-10T07:06:25.606Z,36.60
2019-03-10T07:08:58.888Z,37.80
2019-03-10T07:11:30.375Z,39.60
2019-03-10T07:14:02.146Z,43.60
2019-03-10T07:16:33.776Z,40.20
2019-03-10T07:19:05.983Z,41.00
2019-03-10T07:21:37.508Z,38.20
2019-03-10T07:24:08.938Z,32.00
2019-03-10T07:26:40.699Z,38.60
2019-03-10T07:29:21.909Z,40.40
2019-03-10T07:31:59.055Z,34.60
2019-03-10T07:35:04.677Z,37.00
2019-03-10T07:38:04.610Z,25.80
2019-03-10T07:40:56.179Z,37.40
2019-03-10T07:43:56.066Z,38.00
2019-03-10T07:46:48.852Z,37.20
2019-03-10T07:49:31.081Z,33.60
2019-03-10T07:52:27.530Z,34.20
2019-03-10T07:55:34.000Z,38.40
2019-03-10T07:58:23.162Z,37.60
2019-03-10T08:01:13.877Z,37.20
2019-03-10T08:04:19.720Z,34.60
2019-03-10T08:07:13.593Z,33.20
2019-03-10T08:10:05.021Z,33.00
2019-03-10T08:12:55.918Z,34.00
2019-03-10T08:15:52.238Z,37.00
2019-03-10T08:18:42.648Z,31.00
2019-03-10T08:21:29.887Z,36.00
2019-03-10T08:24:26.466Z,32.00
2019-03-10T08:27:07.655Z,42.80
2019-03-10T08:29:56.647Z,53.80
2019-03-10T08:32:50.688Z,48.60
2019-03-10T08:35:31.551Z,30.60
2019-03-10T08:38:18.759Z,28.80
2019-03-10T08:41:09.518Z,20.60
2019-03-10T08:43:53.636Z,28.20
2019-03-10T08:46:42.963Z,32.00
2019-03-10T08:49:29.198Z,31.60
2019-03-10T08:52:19.576Z,36.40
2019-03-10T08:55:01.803Z,36.40
2019-03-10T08:58:01.644Z,32.40
2019-03-10T09:00:52.658Z,30.20
2019-03-10T09:03:36.024Z,31.80
2019-03-10T09:06:35.376Z,29.00
2019-03-10T09:09:39.292Z,33.00
2019-03-10T09:12:26.935Z,26.40
2019-03-10T09:15:23.191Z,35.00
2019-03-10T09:18:19.892Z,36.80
2019-03-10T09:20:58.762Z,29.40
2019-03-10T09:23:48.396Z,32.80
2019-03-10T09:26:38.539Z,34.00
2019-03-10T09:29:23.971Z,27.20
2019-03-10T09:32:12.597Z,34.40
2019-03-10T09:34:51.727Z,30.80
2019-03-10T09:37:42.450Z,32.20
2019-03-10T09:40:30.036Z,32.00
2019-03-10T09:43:18.891Z,34.00
2019-03-10T09:45:57.107Z,27.40
2019-03-10T09:48:45.798Z,32.00
2019-03-10T09:51:47.756Z,34.40
2019-03-10T09:54:37.746Z,34.00
2019-03-10T09:57:31.230Z,31.00
2019-03-10T10:00:26.393Z,33.20
2019-03-10T10:03:16.172Z,37.40
2019-03-10T10:06:04.280Z,35.00
2019-03-10T10:08:55.057Z,35.80
2019-03-10T10:11:49.338Z,34.20
2019-03-10T10:14:40.489Z,36.20
2019-03-10T10:17:31.452Z,35.40
2019-03-10T10:20:27.085Z,27.20
2019-03-10T10:23:15.996Z,35.00
2019-03-10T10:25:55.118Z,29.80
2019-03-10T10:28:45.410Z,34.40
2019-03-10T10:31:38.908Z,36.20
2019-03-10T10:34:39.186Z,34.20
2019-03-10T10:37:40.834Z,34.00
2019-03-10T10:40:29.099Z,33.40
2019-03-10T10:43:19.529Z,34.80
2019-03-10T10:46:10.991Z,35.80
2019-03-10T10:48:48.717Z,36.00
2019-03-10T10:51:41.832Z,33.00
2019-03-10T10:54:47.972Z,32.20
2019-03-10T10:57:43.893Z,30.40
2019-03-10T11:00:48.128Z,23.20
2019-03-10T11:03:42.592Z,29.60
2019-03-10T11:06:39.413Z,34.60
2019-03-10T11:09:22.939Z,36.00
2019-03-10T11:12:11.002Z,28.80
2019-03-10T11:15:07.043Z,32.80
2019-03-10T11:17:44.485Z,31.40
2019-03-10T11:20:43.522Z,31.00
2019-03-10T11:23:43.460Z,27.00
2019-03-10T11:26:21.373Z,31.80
2019-03-10T11:29:11.537Z,27.60
2019-03-10T11:32:02.469Z,25.60
2019-03-10T11:34:42.568Z,30.80
2019-03-10T11:37:25.826Z,32.60
2019-03-10T11:40:16.247Z,30.60
2019-03-10T11:43:12.543Z,32.40
2019-03-10T11:46:03.591Z,31.80
2019-03-10T11:48:57.331Z,35.40
2019-03-10T11:51:46.400Z,32.80
2019-03-10T11:54:23.444Z,32.60
2019-03-10T11:57:14.295Z,31.60
2019-03-10T12:00:11.244Z,29.40
2019-03-10T12:02:59.856Z,31.00
2019-03-10T12:05:40.555Z,33.40
2019-03-10T12:08:46.738Z,31.20
2019-03-10T12:11:18.865Z,28.80
2019-03-10T12:13:50.892Z,33.40
2019-03-10T12:16:22.722Z,29.20
2019-03-10T12:18:54.385Z,34.00
2019-03-10T12:21:26.146Z,28.40
2019-03-10T12:23:57.989Z,35.80
2019-03-10T12:26:30.210Z,34.80
2019-03-10T12:29:02.061Z,35.40
2019-03-10T12:31:33.846Z,35.60
2019-03-10T12:34:05.746Z,33.80
2019-03-10T12:36:37.888Z,36.00
2019-03-10T12:39:10.284Z,34.80
2019-03-10T12:41:42.392Z,31.40
2019-03-10T12:44:14.310Z,35.40
2019-03-10T12:46:46.398Z,37.00
2019-03-10T12:49:18.077Z,34.20
2019-03-10T12:51:50.028Z,36.20
2019-03-10T12:54:21.643Z,34.60
2019-03-10T12:56:53.344Z,33.40
2019-03-10T12:59:24.943Z,35.40
2019-03-10T13:01:56.764Z,33.80
2019-03-10T13:04:29.590Z,39.00
2019-03-10T13:07:01.495Z,37.80
2019-03-10T13:09:33.105Z,38.80
2019-03-10T13:12:04.645Z,56.60
2019-03-10T13:14:36.111Z,48.40
2019-03-10T13:17:07.806Z,41.60
2019-03-10T13:19:39.326Z,49.20
2019-03-10T13:22:11.347Z,50.40
2019-03-10T13:24:42.952Z,66.80
2019-03-10T13:27:14.771Z,55.20
2019-03-10T13:29:46.433Z,67.20
2019-03-10T13:32:17.886Z,58.00
2019-03-10T13:34:49.693Z,95.20
2019-03-10T13:37:21.478Z,73.40
2019-03-10T13:39:52.969Z,64.60
2019-03-10T13:42:24.559Z,52.60
2019-03-10T13:44:55.939Z,64.00
2019-03-10T13:47:27.304Z,51.40
2019-03-10T13:49:58.786Z,52.20
2019-03-10T13:52:31.513Z,52.80
2019-03-10T13:55:03.452Z,48.40
2019-03-10T13:57:34.816Z,48.80
2019-03-10T14:00:08.108Z,45.40
2019-03-10T14:02:39.515Z,50.00
2019-03-10T14:05:11.382Z,49.00
2019-03-10T14:07:43.364Z,51.00
2019-03-10T14:10:15.191Z,55.20
2019-03-10T14:12:47.088Z,57.80
2019-03-10T14:15:18.764Z,77.80
2019-03-10T14:17:50.703Z,54.80
2019-03-10T14:20:22.527Z,59.00
2019-03-10T14:22:55.253Z,60.00
2019-03-10T14:25:27.112Z,71.20
2019-03-10T14:27:59.002Z,60.60
2019-03-10T14:30:30.991Z,91.40
2019-03-10T14:33:02.899Z,61.20
2019-03-10T14:35:34.434Z,66.20
2019-03-10T14:38:06.175Z,74.80
2019-03-10T14:40:37.655Z,58.40
2019-03-10T14:43:09.613Z,59.60
2019-03-10T14:45:42.270Z,66.40
2019-03-10T14:48:14.197Z,65.20
2019-03-10T14:50:46.794Z,67.80
2019-03-10T14:53:18.301Z,74.80
2019-03-10T14:55:50.889Z,69.20
2019-03-10T14:58:22.625Z,62.40
2019-03-10T15:00:54.063Z,66.80
2019-03-10T15:03:25.685Z,62.00
2019-03-10T15:05:57.391Z,63.00
2019-03-10T15:08:29.249Z,61.40
2019-03-10T15:11:00.942Z,59.40
2019-03-10T15:13:32.700Z,60.20
2019-03-10T15:16:08.001Z,58.60
2019-03-10T15:18:39.926Z,59.00
2019-03-10T15:21:11.544Z,60.20
2019-03-10T15:23:43.250Z,63.00
2019-03-10T15:26:15.130Z,62.80
2019-03-10T15:28:46.975Z,64.80
2019-03-10T15:31:18.585Z,62.20
2019-03-10T15:33:51.087Z,59.80
2019-03-10T15:36:22.702Z,64.20
2019-03-10T15:38:54.363Z,63.80
2019-03-10T15:41:46.333Z,59.00
2019-03-10T15:44:16.566Z,58.60
2019-03-10T15:46:47.992Z,63.20
2019-03-10T15:49:19.533Z,58.80
2019-03-10T15:51:51.220Z,61.00
2019-03-10T15:54:22.572Z,58.60
2019-03-10T15:56:54.192Z,58.80
2019-03-10T15:59:25.967Z,61.60
2019-03-10T16:01:57.644Z,59.20
2019-03-10T16:04:29.117Z,58.00
2019-03-10T16:07:02.205Z,58.60
2019-03-10T16:09:33.708Z,61.60
2019-03-10T16:12:05.521Z,59.80
2019-03-10T16:14:36.937Z,62.20
2019-03-10T16:17:08.660Z,56.40
2019-03-10T16:19:40.275Z,57.40
2019-03-10T16:22:12.087Z,61.20
2019-03-10T16:24:43.475Z,60.60
2019-03-10T16:27:14.953Z,63.00
2019-03-10T16:29:46.699Z,64.20
2019-03-10T16:32:18.603Z,62.80
2019-03-10T16:34:50.193Z,62.20
2019-03-10T16:37:22.116Z,62.80
2019-03-10T16:39:53.877Z,62.20
2019-03-10T16:42:25.402Z,63.00
2019-03-10T16:44:57.129Z,60.60
2019-03-10T16:47:29.104Z,60.80
2019-03-10T16:50:00.678Z,61.00
2019-03-10T16:52:32.545Z,56.40
2019-03-10T16:55:04.258Z,59.80
2019-03-10T16:57:35.830Z,59.40
2019-03-10T17:00:09.478Z,62.00
2019-03-10T17:02:43.277Z,60.40
2019-03-10T17:05:16.019Z,58.40
2019-03-10T17:07:47.799Z,64.80
2019-03-10T17:10:19.638Z,73.60
2019-03-10T17:12:51.428Z,77.40
2019-03-10T17:15:23.592Z,87.00
2019-03-10T17:17:55.268Z,90.00
2019-03-10T17:20:27.291Z,82.40
2019-03-10T17:22:58.953Z,69.60
2019-03-10T17:25:30.630Z,71.00
2019-03-10T17:28:02.387Z,66.60
2019-03-10T17:30:34.475Z,63.20
2019-03-10T17:33:06.557Z,64.20
2019-03-10T17:35:38.219Z,59.80
2019-03-10T17:38:09.861Z,61.40
2019-03-10T17:40:41.674Z,61.80
2019-03-10T17:43:13.255Z,60.40
2019-03-10T17:45:44.842Z,58.40
2019-03-10T17:48:16.305Z,61.20
2019-03-10T17:50:47.917Z,59.60
2019-03-10T17:53:19.509Z,60.00
2019-03-10T17:55:51.492Z,62.00
2019-03-10T17:58:23.197Z,61.60
2019-03-10T18:00:54.981Z,61.40
2019-03-10T18:03:27.115Z,61.40
2019-03-10T18:05:58.595Z,58.20
2019-03-10T18:08:30.427Z,61.60
2019-03-10T18:11:02.111Z,65.00
2019-03-10T18:13:33.683Z,65.60
2019-03-10T18:16:05.640Z,63.40
2019-03-10T18:18:37.521Z,64.20
2019-03-10T18:21:09.626Z,62.80
2019-03-10T18:23:41.188Z,67.40
2019-03-10T18:26:12.718Z,65.00
2019-03-10T18:28:44.934Z,63.00
2019-03-10T18:31:16.396Z,64.40
2019-03-10T18:33:48.011Z,64.00
2019-03-10T18:36:19.779Z,62.00
2019-03-10T18:38:51.440Z,61.20
2019-03-10T18:41:23.267Z,67.60
2019-03-10T18:43:54.960Z,63.20
2019-03-10T18:46:26.730Z,62.40
2019-03-10T18:48:58.492Z,59.80
2019-03-10T18:51:30.040Z,62.00
2019-03-10T18:54:01.555Z,62.00
2019-03-10T18:56:33.201Z,61.20
2019-03-10T18:59:05.359Z,61.80
2019-03-10T19:01:36.843Z,64.00
2019-03-10T19:04:08.748Z,55.00
2019-03-10T19:06:40.287Z,59.00
2019-03-10T19:09:11.813Z,61.40
2019-03-10T19:11:43.598Z,61.20
2019-03-10T19:14:15.112Z,58.60
2019-03-10T19:16:46.860Z,58.60
2019-03-10T19:19:18.579Z,55.20
2019-03-10T19:21:50.876Z,58.00
2019-03-10T19:24:22.693Z,58.00
2019-03-10T19:26:54.523Z,60.20
2019-03-10T19:29:26.210Z,60.80
2019-03-10T19:31:57.888Z,61.00
2019-03-10T19:34:29.245Z,57.00
2019-03-10T19:37:01.219Z,58.60
2019-03-10T19:39:32.939Z,62.60
2019-03-10T19:42:04.531Z,62.00
2019-03-10T19:44:36.438Z,57.00
2019-03-10T19:47:08.095Z,57.20
2019-03-10T19:49:39.583Z,56.80
2019-03-10T19:52:10.850Z,55.60
2019-03-10T19:54:42.218Z,58.00
2019-03-10T19:57:14.031Z,58.20
2019-03-10T19:59:45.475Z,54.00
2019-03-10T20:02:17.050Z,56.40
2019-03-10T20:04:48.507Z,56.60
2019-03-10T20:07:20.070Z,59.00
2019-03-10T20:09:51.835Z,54.20
2019-03-10T20:12:23.309Z,56.80
2019-03-10T20:14:55.086Z,57.00
2019-03-10T20:17:26.710Z,59.40
2019-03-10T20:19:58.565Z,54.60
2019-03-10T20:22:30.240Z,56.20
2019-03-10T20:25:01.953Z,55.00
2019-03-10T20:27:33.845Z,57.00
2019-03-10T20:30:05.692Z,59.20
2019-03-10T20:32:37.696Z,59.20
2019-03-10T20:35:09.467Z,75.60
2019-03-10T20:37:41.008Z,87.40
2019-03-10T20:40:14.408Z,100.20
2019-03-10T20:42:45.987Z,103.20
2019-03-10T20:45:17.706Z,86.60
2019-03-10T20:47:49.817Z,71.20
2019-03-10T20:50:21.476Z,64.60
2019-03-10T20:52:53.295Z,63.60
2019-03-10T20:55:24.724Z,60.60
2019-03-10T20:57:56.236Z,58.40
2019-03-10T21:00:27.916Z,56.00
2019-03-10T21:02:59.724Z,60.60
2019-03-10T21:05:31.350Z,60.40
2019-03-10T21:08:03.315Z,55.80
2019-03-10T21:10:34.856Z,58.80
2019-03-10T21:13:06.376Z,58.80
2019-03-10T21:15:38.219Z,61.40
2019-03-10T21:18:09.649Z,61.20
2019-03-10T21:20:41.233Z,57.60
2019-03-10T21:23:12.921Z,61.00
2019-03-10T21:25:44.776Z,59.40
2019-03-10T21:28:16.663Z,57.60
2019-03-10T21:30:48.386Z,57.40
2019-03-10T21:33:19.864Z,62.20
2019-03-10T21:35:51.773Z,55.40
2019-03-10T21:38:23.194Z,58.60
2019-03-10T21:40:54.915Z,60.80
2019-03-10T21:43:26.757Z,63.40
2019-03-10T21:45:58.302Z,65.40
2019-03-10T21:48:30.029Z,71.60
2019-03-10T21:51:01.731Z,66.00
2019-03-10T21:53:33.344Z,70.80
2019-03-10T21:56:05.123Z,66.20
2019-03-10T21:58:36.430Z,60.40
2019-03-10T22:01:08.278Z,70.40
2019-03-10T22:03:40.963Z,69.20
2019-03-10T22:06:12.599Z,71.00
2019-03-10T22:08:44.183Z,61.60
2019-03-10T22:11:15.792Z,63.60
2019-03-10T22:13:47.183Z,67.20
2019-03-10T22:16:18.790Z,66.00
2019-03-10T22:18:50.698Z,66.60
2019-03-10T22:21:22.350Z,66.00
2019-03-10T22:23:59.313Z,67.80
2019-03-10T22:26:26.881Z,69.40
2019-03-10T22:28:58.647Z,71.60
2019-03-10T22:31:30.834Z,66.00
2019-03-10T22:34:02.546Z,71.00
2019-03-10T22:36:34.329Z,67.60
2019-03-10T22:39:08.070Z,73.40
2019-03-10T22:41:39.806Z,99.80
2019-03-10T22:44:11.245Z,125.20
2019-03-10T22:46:42.853Z,143.40
2019-03-10T22:49:14.511Z,147.80
2019-03-10T22:51:45.902Z,138.60
2019-03-10T22:54:17.574Z,108.80
2019-03-10T22:56:49.105Z,74.20
2019-03-10T22:59:20.841Z,67.20
2019-03-10T23:01:52.452Z,72.80
2019-03-10T23:04:24.268Z,74.00
2019-03-10T23:06:55.918Z,73.40
2019-03-10T23:09:27.633Z,69.00
2019-03-10T23:11:59.112Z,73.00
2019-03-10T23:14:30.847Z,69.60
2019-03-10T23:17:02.434Z,77.60
2019-03-10T23:19:34.138Z,65.80
2019-03-10T23:22:05.914Z,72.60
2019-03-10T23:24:37.700Z,72.20
2019-03-10T23:27:09.104Z,74.00
2019-03-10T23:29:40.559Z,73.60
2019-03-10T23:32:11.928Z,70.40
2019-03-10T23:34:43.904Z,70.80
2019-03-10T23:37:15.532Z,68.60
2019-03-10T23:39:46.893Z,68.00
2019-03-10T23:42:18.368Z,74.20
2019-03-10T23:44:49.986Z,67.80
2019-03-10T23:47:21.447Z,75.20
2019-03-10T23:49:52.724Z,68.40
2019-03-10T23:52:24.302Z,72.60
2019-03-10T23:54:55.610Z,70.80
2019-03-10T23:57:27.226Z,68.40
2019-03-10T23:59:58.856Z,70.20
